Time;durP1;ratioP1;P1;durP2;ratioP2;P2;SDS_P1;SDS_P2;PMS_P1;PMS_P2;Temp;Humidity;BMP_temperature;BMP_pressure;BME280_temperature;BME280_humidity;BME280_pressure;Samples;Min_cycle;Max_cycle;Signal;HPM_P1;HPM_P2
2022/01/12 00:00:21;;;;;;;6.13;3.20;;;1.20;99.90;;;;;;5101226;28;20286;-63
2022/01/12 00:02:47;;;;;;;5.00;3.20;;;1.20;99.90;;;;;;5096024;28;20184;-64
2022/01/12 00:05:14;;;;;;;4.53;3.30;;;1.20;99.90;;;;;;5098176;28;20283;-63
2022/01/12 00:07:39;;;;;;;5.83;3.70;;;1.10;99.90;;;;;;5094781;28;20180;-64
2022/01/12 00:10:05;;;;;;;9.67;4.60;;;1.20;99.90;;;;;;5094685;28;20259;-63
2022/01/12 00:12:31;;;;;;;9.50;4.80;;;1.20;99.90;;;;;;5103682;28;20183;-63
2022/01/12 00:14:56;;;;;;;9.10;6.20;;;1.20;99.90;;;;;;5109075;28;20180;-63
2022/01/12 00:17:22;;;;;;;8.32;5.47;;;1.20;99.90;;;;;;5094458;28;20218;-63
2022/01/12 00:19:48;;;;;;;5.47;3.73;;;1.20;99.90;;;;;;5104662;28;20190;-63
2022/01/12 00:22:14;;;;;;;4.57;3.00;;;1.20;99.90;;;;;;5108993;28;20183;-64
2022/01/12 00:35:54;;;;;;;4.33;3.00;;;1.00;99.90;;;;;;5074818;28;20306;-64
2022/01/12 00:38:23;;;;;;;5.63;3.10;;;1.00;99.90;;;;;;5090356;28;20603;-63
2022/01/12 00:40:51;;;;;;;4.17;3.00;;;1.00;99.90;;;;;;5093403;28;20211;-63
2022/01/12 00:43:18;;;;;;;5.03;3.33;;;1.00;99.90;;;;;;5094207;28;20180;-63
2022/01/12 00:45:47;;;;;;;4.70;3.27;;;1.00;99.90;;;;;;5094003;28;20384;-63
2022/01/12 00:48:17;;;;;;;3.93;3.13;;;1.00;99.90;;;;;;5093941;28;20692;-63
2022/01/12 00:50:45;;;;;;;5.27;3.17;;;0.90;99.90;;;;;;5093755;28;20635;-63
2022/01/12 00:53:10;;;;;;;4.50;3.20;;;0.90;99.90;;;;;;5093569;28;20266;-63
2022/01/12 00:55:37;;;;;;;5.00;3.30;;;1.00;99.90;;;;;;5094229;28;20272;-63
2022/01/12 00:58:03;;;;;;;6.53;3.53;;;1.00;99.90;;;;;;5093348;28;20224;-63
2022/01/12 01:00:30;;;;;;;7.37;3.70;;;0.90;99.90;;;;;;5093537;28;20184;-63
2022/01/12 01:02:56;;;;;;;4.90;3.30;;;0.90;99.90;;;;;;5093099;28;20176;-63
2022/01/12 01:05:23;;;;;;;5.93;3.42;;;0.90;99.90;;;;;;5093909;28;20184;-63
2022/01/12 01:07:50;;;;;;;5.80;3.60;;;0.90;99.90;;;;;;5093592;28;20171;-63
2022/01/12 01:10:27;;;;;;;7.32;3.67;;;0.90;99.90;;;;;;5093047;28;20229;-63
2022/01/12 01:12:53;;;;;;;4.65;3.42;;;0.90;99.90;;;;;;5073452;28;20188;-63
2022/01/12 01:15:27;;;;;;;5.77;3.27;;;0.90;99.90;;;;;;5095549;28;20190;-63
2022/01/12 01:26:05;;;;;;;5.43;3.30;;;0.70;99.90;;;;;;5095545;28;20241;-63
2022/01/12 01:28:30;;;;;;;5.50;3.43;;;0.70;99.90;;;;;;5097188;28;20187;-63
2022/01/12 01:30:56;;;;;;;5.53;3.53;;;0.70;99.90;;;;;;5093194;28;20548;-63
2022/01/12 01:33:22;;;;;;;6.90;4.10;;;0.60;99.90;;;;;;5094111;28;20176;-63
2022/01/12 01:35:54;;;;;;;5.37;3.47;;;0.60;99.90;;;;;;5099862;28;20262;-63
2022/01/12 01:38:19;;;;;;;5.27;3.50;;;0.50;99.90;;;;;;5108710;28;20253;-63
2022/01/12 01:40:46;;;;;;;8.70;4.00;;;0.50;99.90;;;;;;5112821;28;20631;-63
2022/01/12 01:53:55;;;;;;;70.83;21.87;;;0.40;99.90;;;;;;5107942;28;20699;-63
2022/01/12 01:56:21;;;;;;;61.73;19.87;;;0.40;99.90;;;;;;5092504;28;20236;-63
2022/01/12 01:58:47;;;;;;;32.93;11.93;;;0.40;99.90;;;;;;5107537;28;20227;-63
2022/01/12 02:01:13;;;;;;;19.57;9.10;;;0.40;99.90;;;;;;5107938;28;20183;-63
2022/01/12 02:03:41;;;;;;;19.53;8.83;;;0.40;99.90;;;;;;5092710;28;20544;-63
2022/01/12 02:06:07;;;;;;;20.70;9.17;;;0.30;99.90;;;;;;5107844;28;20611;-63
2022/01/12 02:08:35;;;;;;;24.43;10.57;;;0.30;99.90;;;;;;5107799;28;20531;-63
2022/01/12 02:11:02;;;;;;;16.20;7.10;;;0.30;99.90;;;;;;5092494;28;20191;-63
2022/01/12 02:13:28;;;;;;;15.60;6.67;;;0.30;99.90;;;;;;5107511;28;20262;-63
2022/01/12 02:15:55;;;;;;;14.53;6.83;;;0.30;99.90;;;;;;5107359;28;20172;-63
2022/01/12 02:35:16;;;;;;;6.57;4.13;;;0.10;99.90;;;;;;5101651;28;20188;-63
2022/01/12 02:40:32;;;;;;;6.03;4.00;;;0.00;99.90;;;;;;5092942;28;20168;-63
2022/01/12 02:53:37;;;;;;;7.00;4.30;;;-0.10;99.90;;;;;;5092274;28;20238;-64
2022/01/12 02:53:43;;;;;;;8.27;4.33;;;-0.10;99.90;;;;;;5088992;28;20187;-64
2022/01/12 02:56:11;;;;;;;7.93;4.50;;;-0.10;99.90;;;;;;5091709;28;20207;-64
2022/01/12 02:58:38;;;;;;;7.33;4.40;;;-0.10;99.90;;;;;;5103116;28;20232;-64
2022/01/12 03:01:32;;;;;;;8.10;4.50;;;-0.10;99.90;;;;;;5091986;28;20686;-63
2022/01/12 03:03:56;;;;;;;5.70;3.83;;;-0.20;99.90;;;;;;5091719;28;20583;-63
2022/01/12 03:06:29;;;;;;;7.03;4.13;;;-0.20;99.90;;;;;;5091972;28;20529;-64
2022/01/12 03:08:55;;;;;;;6.97;3.90;;;-0.20;99.90;;;;;;5091928;28;20172;-63
2022/01/12 03:11:22;;;;;;;7.13;4.47;;;-0.30;99.90;;;;;;5091652;28;20234;-64
2022/01/12 03:13:49;;;;;;;6.17;3.80;;;-0.30;99.90;;;;;;5091937;28;20176;-63
2022/01/12 03:16:21;;;;;;;6.73;4.37;;;-0.30;99.90;;;;;;5091693;28;20303;-64
2022/01/12 03:18:49;;;;;;;7.13;4.43;;;-0.30;99.90;;;;;;5092263;28;20690;-64
2022/01/12 03:21:17;;;;;;;7.90;5.00;;;-0.40;99.90;;;;;;5104466;28;20179;-63
2022/01/12 03:23:42;;;;;;;6.83;4.03;;;-0.40;99.90;;;;;;5110494;28;20183;-64
2022/01/12 03:26:09;;;;;;;9.57;4.67;;;-0.40;99.90;;;;;;5109600;28;20192;-64
2022/01/12 03:28:37;;;;;;;10.83;5.83;;;-0.40;99.90;;;;;;5103640;28;20184;-64
2022/01/12 03:33:50;;;;;;;10.17;5.23;;;-0.50;99.90;;;;;;5111669;28;20175;-64
2022/01/12 03:38:49;;;;;;;8.00;4.20;;;-0.50;99.90;;;;;;5087415;28;20173;-64
2022/01/12 03:41:15;;;;;;;7.73;4.70;;;-0.50;99.90;;;;;;5101539;28;20179;-64
2022/01/12 03:43:41;;;;;;;8.13;4.50;;;-0.50;99.90;;;;;;5110232;28;20536;-64
2022/01/12 03:46:06;;;;;;;33.37;12.20;;;-0.60;99.90;;;;;;5102985;28;20190;-64
2022/01/12 03:48:32;;;;;;;58.00;18.77;;;-0.60;99.90;;;;;;5100153;28;20184;-64
2022/01/12 03:50:57;;;;;;;27.17;10.37;;;-0.60;99.90;;;;;;5094933;28;20655;-64
2022/01/12 03:53:23;;;;;;;13.03;7.60;;;-0.70;99.90;;;;;;5094498;28;20661;-64
2022/01/12 03:55:49;;;;;;;10.53;5.60;;;-0.70;99.90;;;;;;5113212;28;20190;-64
2022/01/12 03:58:15;;;;;;;8.57;4.90;;;-0.70;99.90;;;;;;5099793;28;20235;-64
2022/01/12 04:00:41;;;;;;;6.67;4.30;;;-0.80;99.90;;;;;;5095159;28;20183;-64
2022/01/12 04:03:07;;;;;;;7.77;4.57;;;-0.80;99.90;;;;;;5095113;28;20394;-64
2022/01/12 04:08:19;;;;;;;7.50;4.57;;;-0.80;99.90;;;;;;5112111;28;20187;-64
2022/01/12 04:11:05;;;;;;;8.20;4.73;;;-0.80;99.90;;;;;;5097912;28;20657;-64
2022/01/12 04:13:31;;;;;;;12.57;4.90;;;-0.80;99.90;;;;;;5099496;28;20282;-65
2022/01/12 04:16:01;;;;;;;9.37;5.10;;;-0.90;99.90;;;;;;5107851;28;20176;-65
2022/01/12 04:18:26;;;;;;;8.63;5.03;;;-0.90;99.90;;;;;;5095904;28;20176;-64
2022/01/12 04:20:52;;;;;;;17.87;10.63;;;-0.90;99.90;;;;;;5103940;28;20184;-64
2022/01/12 04:23:20;;;;;;;26.33;15.10;;;-0.90;99.90;;;;;;5114894;28;20175;-64
2022/01/12 04:25:57;;;;;;;28.30;16.40;;;-0.90;99.90;;;;;;5103140;28;20711;-64
2022/01/12 04:28:25;;;;;;;25.97;14.83;;;-0.90;99.90;;;;;;5101583;28;20203;-64
2022/01/12 04:30:53;;;;;;;16.13;9.03;;;-1.00;99.90;;;;;;5113512;28;20175;-65
2022/01/12 04:33:20;;;;;;;23.37;8.93;;;-0.90;99.90;;;;;;5094304;28;20168;-65
2022/01/12 04:35:49;;;;;;;31.00;11.33;;;-0.90;99.90;;;;;;5106566;28;20187;-65
2022/01/12 04:38:17;;;;;;;90.07;29.03;;;-0.90;99.90;;;;;;5094179;28;20176;-65
2022/01/12 04:40:43;;;;;;;82.73;27.37;;;-0.90;99.90;;;;;;5094347;28;20176;-65
2022/01/12 04:43:09;;;;;;;67.43;22.60;;;-0.90;99.90;;;;;;5100988;28;20202;-64
2022/01/12 04:45:58;;;;;;;29.67;11.30;;;-0.90;99.90;;;;;;5104052;28;20176;-65
2022/01/12 04:50:54;;;;;;;12.07;6.07;;;-1.00;99.90;;;;;;5093854;28;20173;-61
2022/01/12 04:53:20;;;;;;;9.10;5.40;;;-1.00;99.90;;;;;;5090504;28;20187;-64
2022/01/12 04:55:50;;;;;;;11.53;5.40;;;-1.00;99.90;;;;;;5093817;28;20184;-63
2022/01/12 04:58:17;;;;;;;8.80;5.23;;;-1.10;99.90;;;;;;5093499;28;20228;-64
2022/01/12 05:00:44;;;;;;;10.80;6.10;;;-1.10;99.90;;;;;;5093862;28;20538;-64
2022/01/12 05:13:55;;;;;;;13.53;7.13;;;-1.20;99.90;;;;;;5092709;28;20652;-62
2022/01/12 05:16:22;;;;;;;12.83;6.67;;;-1.20;99.90;;;;;;5093384;28;20211;-60
2022/01/12 05:18:49;;;;;;;14.43;6.63;;;-1.30;99.90;;;;;;5094418;28;20184;-60
2022/01/12 05:21:17;;;;;;;12.80;6.83;;;-1.20;99.90;;;;;;5092817;28;20173;-63
2022/01/12 05:23:43;;;;;;;15.33;8.83;;;-1.20;99.90;;;;;;5093655;28;20259;-63
2022/01/12 05:26:09;;;;;;;15.47;9.00;;;-1.20;99.90;;;;;;5093035;28;20267;-63
2022/01/12 05:28:38;;;;;;;13.20;7.43;;;-1.20;99.90;;;;;;5091755;28;20188;-63
2022/01/12 05:31:04;;;;;;;9.37;5.43;;;-1.30;99.90;;;;;;5093248;28;20317;-62
2022/01/12 05:33:30;;;;;;;12.03;6.10;;;-1.30;99.90;;;;;;5091857;28;20253;-62
2022/01/12 05:35:58;;;;;;;10.80;6.53;;;-1.30;99.90;;;;;;5099964;28;20179;-65
2022/01/12 05:38:24;;;;;;;12.13;6.00;;;-1.30;99.90;;;;;;5081716;28;20178;-64
2022/01/12 05:41:00;;;;;;;10.57;5.80;;;-1.30;99.90;;;;;;5092989;28;20698;-64
2022/01/12 05:43:29;;;;;;;10.97;6.00;;;-1.30;99.90;;;;;;5093267;28;20184;-65
2022/01/12 05:45:57;;;;;;;12.17;6.17;;;-1.30;99.90;;;;;;5092028;28;20172;-64
2022/01/12 05:51:07;;;;;;;14.47;7.87;;;-1.30;99.90;;;;;;5093016;28;20205;-64
2022/01/12 05:53:33;;;;;;;12.10;7.50;;;-1.30;99.90;;;;;;5093136;28;20180;-64
2022/01/12 05:55:58;;;;;;;13.40;7.57;;;-1.40;99.90;;;;;;5093277;28;20172;-64
2022/01/12 05:58:24;;;;;;;11.83;7.03;;;-1.30;99.90;;;;;;5092874;28;20273;-64
2022/01/12 06:00:49;;;;;;;16.67;8.83;;;-1.30;99.90;;;;;;5093035;28;20172;-64
2022/01/12 06:03:15;;;;;;;15.73;9.53;;;-1.30;99.90;;;;;;5092789;28;20274;-64
2022/01/12 06:05:40;;;;;;;20.90;10.53;;;-1.30;99.90;;;;;;5092813;28;20198;-65
2022/01/12 06:08:07;;;;;;;17.90;9.83;;;-1.30;99.90;;;;;;5092816;28;20180;-64
2022/01/12 06:10:32;;;;;;;16.83;9.40;;;-1.30;99.90;;;;;;5092956;28;20174;-64
2022/01/12 06:12:58;;;;;;;19.03;10.23;;;-1.30;99.90;;;;;;5092817;28;20288;-64
2022/01/12 06:15:24;;;;;;;21.50;10.33;;;-1.30;99.90;;;;;;5092818;28;20253;-64
2022/01/12 06:17:49;;;;;;;15.20;9.03;;;-1.30;99.90;;;;;;5092663;28;20211;-64
2022/01/12 06:20:15;;;;;;;14.73;8.50;;;-1.30;99.90;;;;;;5092611;28;20176;-64
2022/01/12 06:22:41;;;;;;;13.93;8.23;;;-1.30;99.90;;;;;;5092779;28;20172;-64
2022/01/12 06:25:12;;;;;;;13.17;7.57;;;-1.30;99.90;;;;;;5092568;28;20182;-64
2022/01/12 06:27:38;;;;;;;15.77;8.00;;;-1.40;99.90;;;;;;5092803;28;20542;-64
2022/01/12 06:32:48;;;;;;;23.17;12.07;;;-1.40;99.90;;;;;;5093033;28;20237;-64
2022/01/12 06:35:13;;;;;;;22.77;12.80;;;-1.40;99.90;;;;;;5092426;28;20164;-64
2022/01/12 06:37:39;;;;;;;23.83;11.83;;;-1.40;99.90;;;;;;5092600;28;20239;-64
2022/01/12 06:40:05;;;;;;;29.80;13.33;;;-1.40;99.90;;;;;;5092338;28;20644;-64
2022/01/12 06:42:30;;;;;;;43.23;19.83;;;-1.40;99.90;;;;;;5092389;28;20256;-64
2022/01/12 06:44:56;;;;;;;29.70;14.70;;;-1.40;99.90;;;;;;5092519;28;20263;-64
2022/01/12 06:47:21;;;;;;;23.50;12.67;;;-1.40;99.90;;;;;;5092418;28;20172;-64
2022/01/12 06:49:47;;;;;;;20.30;10.87;;;-1.40;99.90;;;;;;5092327;28;20509;-63
2022/01/12 06:52:13;;;;;;;18.07;10.20;;;-1.40;99.90;;;;;;5092192;28;20180;-64
2022/01/12 06:54:39;;;;;;;15.30;9.00;;;-1.40;99.90;;;;;;5092468;28;20254;-64
2022/01/12 06:57:04;;;;;;;15.13;8.97;;;-1.40;99.90;;;;;;5092120;28;20666;-64
2022/01/12 06:59:30;;;;;;;14.50;8.67;;;-1.40;99.90;;;;;;5092118;28;20227;-64
2022/01/12 07:01:57;;;;;;;13.13;7.40;;;-1.30;99.90;;;;;;5092139;28;20583;-64
2022/01/12 07:04:24;;;;;;;13.13;7.20;;;-1.30;99.90;;;;;;5092149;28;20168;-64
2022/01/12 07:06:50;;;;;;;28.63;9.23;;;-1.30;99.90;;;;;;5092230;28;20180;-64
2022/01/12 07:09:16;;;;;;;51.33;10.13;;;-1.30;99.90;;;;;;5092120;28;20703;-64
2022/01/12 07:11:42;;;;;;;33.17;9.20;;;-1.20;99.90;;;;;;5092220;28;20172;-64
2022/01/12 07:14:07;;;;;;;17.53;8.63;;;-1.20;99.90;;;;;;5092032;28;20199;-64
2022/01/12 07:16:34;;;;;;;20.83;8.87;;;-1.20;99.90;;;;;;5094169;28;20585;-63
2022/01/12 07:19:00;;;;;;;17.80;9.27;;;-1.10;99.90;;;;;;5096021;28;20190;-64
2022/01/12 07:21:26;;;;;;;19.17;8.77;;;-1.10;99.90;;;;;;5096006;28;20623;-61
2022/01/12 07:23:54;;;;;;;13.93;8.13;;;-1.10;99.90;;;;;;5095859;28;20580;-61
2022/01/12 07:26:21;;;;;;;17.90;9.13;;;-1.00;99.90;;;;;;5096020;28;20207;-61
2022/01/12 07:28:47;;;;;;;14.30;8.30;;;-1.00;99.90;;;;;;5094607;28;20279;-61
2022/01/12 07:31:13;;;;;;;15.50;8.30;;;-1.00;99.90;;;;;;5095823;28;20682;-62
2022/01/12 07:33:38;;;;;;;23.33;10.03;;;-1.00;99.90;;;;;;5095970;28;20541;-61
2022/01/12 07:36:04;;;;;;;22.13;10.70;;;-1.00;99.90;;;;;;5095883;28;20615;-62
2022/01/12 07:38:29;;;;;;;20.17;9.63;;;-1.00;99.90;;;;;;5096065;28;20548;-61
2022/01/12 07:40:55;;;;;;;18.87;9.30;;;-0.90;99.90;;;;;;5095690;28;20164;-63
2022/01/12 07:43:20;;;;;;;15.50;8.10;;;-0.90;99.90;;;;;;5095796;28;20176;-63
2022/01/12 07:45:46;;;;;;;14.17;7.63;;;-0.90;99.90;;;;;;5095651;28;20183;-63
2022/01/12 07:48:13;;;;;;;12.30;7.43;;;-0.80;99.90;;;;;;5095427;28;20639;-63
2022/01/12 07:50:39;;;;;;;14.03;7.63;;;-0.80;99.90;;;;;;5095613;28;20230;-63
2022/01/12 07:53:04;;;;;;;11.73;7.30;;;-0.80;99.90;;;;;;5095319;28;20175;-64
2022/01/12 07:55:30;;;;;;;12.63;7.83;;;-0.70;99.90;;;;;;5095480;28;20200;-63
2022/01/12 07:57:56;;;;;;;13.23;7.03;;;-0.70;99.90;;;;;;5095058;28;20222;-64
2022/01/12 08:00:22;;;;;;;13.23;7.77;;;-0.60;99.90;;;;;;5095175;28;20518;-63
2022/01/12 08:02:51;;;;;;;12.77;7.97;;;-0.60;99.90;;;;;;5095370;28;20188;-64
2022/01/12 08:05:18;;;;;;;13.67;8.47;;;-0.50;99.90;;;;;;5095260;28;20902;-64
2022/01/12 08:07:45;;;;;;;18.30;8.90;;;-0.50;99.90;;;;;;5095121;28;20171;-64
2022/01/12 08:10:10;;;;;;;13.00;7.87;;;-0.40;99.90;;;;;;5095081;28;20542;-64
2022/01/12 08:12:37;;;;;;;14.17;7.63;;;-0.40;99.90;;;;;;5095190;28;20255;-63
2022/01/12 08:15:07;;;;;;;11.77;7.10;;;-0.30;99.90;;;;;;5094994;28;20259;-64
2022/01/12 08:17:33;;;;;;;12.27;7.70;;;-0.20;99.90;;;;;;5094884;28;20215;-63
2022/01/12 08:20:00;;;;;;;13.27;7.30;;;-0.10;99.90;;;;;;5094861;28;20180;-64
2022/01/12 08:22:26;;;;;;;12.60;7.80;;;0.00;99.90;;;;;;5094881;28;20184;-64
2022/01/12 08:24:52;;;;;;;12.73;7.37;;;0.10;99.90;;;;;;5094749;28;20176;-64
2022/01/12 08:27:18;;;;;;;13.87;7.47;;;0.30;99.90;;;;;;5093376;28;20196;-63
2022/01/12 08:29:43;;;;;;;14.10;7.70;;;0.40;99.90;;;;;;5094758;28;20172;-64
2022/01/12 08:32:09;;;;;;;14.40;7.97;;;0.50;99.90;;;;;;5094594;28;20183;-64
2022/01/12 08:34:35;;;;;;;13.17;8.03;;;0.60;99.90;;;;;;5093324;28;20326;-64
2022/01/12 08:37:00;;;;;;;14.50;9.23;;;0.70;99.90;;;;;;5094417;28;20195;-64
2022/01/12 08:39:26;;;;;;;15.00;8.83;;;0.80;99.90;;;;;;5094615;28;20182;-64
2022/01/12 08:41:52;;;;;;;15.00;7.53;;;0.80;99.90;;;;;;5094325;28;20180;-64
2022/01/12 08:44:17;;;;;;;13.13;8.03;;;0.90;99.90;;;;;;5094339;28;20184;-64
2022/01/12 08:46:43;;;;;;;15.77;8.07;;;1.00;99.90;;;;;;5094447;28;20184;-64
2022/01/12 08:49:09;;;;;;;11.47;7.20;;;1.00;99.90;;;;;;5094278;28;20233;-64
2022/01/12 08:51:36;;;;;;;13.40;7.97;;;1.10;99.90;;;;;;5094259;28;20175;-64
2022/01/12 08:54:04;;;;;;;11.87;7.70;;;1.20;99.90;;;;;;5094166;28;20184;-64
2022/01/12 08:56:30;;;;;;;13.10;7.73;;;1.30;99.90;;;;;;5094189;28;20220;-64
2022/01/12 08:58:55;;;;;;;14.20;8.13;;;1.40;99.90;;;;;;5092519;28;20234;-64
2022/01/12 09:01:21;;;;;;;13.30;7.77;;;1.50;99.90;;;;;;5093890;28;20184;-64
2022/01/12 09:03:47;;;;;;;13.50;7.53;;;1.50;99.90;;;;;;5092650;28;20288;-64
2022/01/12 09:06:13;;;;;;;13.07;7.70;;;1.60;99.90;;;;;;5093713;28;20173;-64
2022/01/12 09:08:40;;;;;;;15.50;9.23;;;1.70;99.90;;;;;;5094035;28;20222;-64
2022/01/12 09:11:07;;;;;;;27.73;13.63;;;1.80;99.90;;;;;;5093810;28;20195;-64
2022/01/12 09:13:33;;;;;;;21.95;11.77;;;1.90;99.90;;;;;;5093783;28;20181;-64
2022/01/12 09:16:03;;;;;;;16.30;9.27;;;2.00;99.90;;;;;;5093579;28;20245;-64
2022/01/12 09:18:29;;;;;;;14.40;8.83;;;2.10;99.90;;;;;;5093844;28;20257;-64
2022/01/12 09:20:56;;;;;;;13.70;7.93;;;2.10;99.90;;;;;;5093644;28;20607;-64
2022/01/12 09:23:21;;;;;;;13.87;8.27;;;2.20;99.90;;;;;;5093759;28;20266;-64
2022/01/12 09:25:47;;;;;;;15.00;8.20;;;2.20;99.90;;;;;;5093694;28;20267;-64
2022/01/12 09:28:12;;;;;;;11.03;7.27;;;2.20;99.90;;;;;;5093445;28;20225;-64
2022/01/12 09:30:38;;;;;;;11.90;7.93;;;2.30;99.90;;;;;;5093622;28;20601;-64
2022/01/12 09:33:04;;;;;;;12.90;7.80;;;2.30;99.90;;;;;;5093410;28;20187;-64
2022/01/12 09:35:30;;;;;;;13.82;7.97;;;2.40;99.90;;;;;;5093502;28;20183;-64
2022/01/12 09:37:56;;;;;;;11.85;7.07;;;2.50;99.90;;;;;;5093055;28;20220;-64
2022/01/12 09:40:22;;;;;;;13.48;8.13;;;2.60;99.90;;;;;;5093173;28;20183;-64
2022/01/12 09:42:48;;;;;;;12.15;7.78;;;2.60;99.90;;;;;;5093413;28;20207;-64
2022/01/12 09:45:15;;;;;;;12.75;7.70;;;2.60;99.90;;;;;;5093140;28;20263;-63
2022/01/12 09:47:42;;;;;;;12.70;7.07;;;2.50;99.90;;;;;;5093384;28;20200;-64
2022/01/12 09:50:09;;;;;;;11.97;7.83;;;2.40;99.90;;;;;;5093151;28;20180;-64
2022/01/12 09:52:35;;;;;;;12.13;7.60;;;2.40;99.90;;;;;;5093145;28;20589;-64
2022/01/12 09:55:00;;;;;;;11.63;7.38;;;2.50;99.90;;;;;;5093043;28;20187;-64
2022/01/12 09:57:26;;;;;;;12.68;7.72;;;2.60;99.90;;;;;;5092891;28;20295;-61
2022/01/12 09:59:52;;;;;;;13.18;8.32;;;2.70;99.90;;;;;;5092719;28;20228;-61
2022/01/12 10:02:19;;;;;;;12.88;7.68;;;2.80;99.90;;;;;;5092919;28;20257;-61
2022/01/12 10:04:45;;;;;;;13.05;8.02;;;2.90;99.90;;;;;;5093071;28;20541;-62
2022/01/12 10:07:11;;;;;;;11.90;7.55;;;3.00;99.90;;;;;;5092806;28;20189;-61
2022/01/12 10:09:46;;;;;;;12.53;7.50;;;3.00;99.90;;;;;;5092874;28;20255;-60
2022/01/12 10:12:17;;;;;;;12.23;6.93;;;3.00;99.90;;;;;;5092707;28;20183;-61
2022/01/12 10:14:49;;;;;;;11.48;7.60;;;3.10;99.90;;;;;;5092847;28;20183;-61
2022/01/12 10:17:29;;;;;;;11.77;7.50;;;3.00;99.90;;;;;;5092404;28;20207;-60
2022/01/12 10:20:10;;;;;;;14.23;8.23;;;3.00;99.90;;;;;;5092637;28;20191;-61
2022/01/12 10:22:36;;;;;;;13.00;7.63;;;3.00;99.90;;;;;;5092785;28;20183;-60
2022/01/12 10:25:19;;;;;;;11.77;7.43;;;3.00;99.90;;;;;;5092568;28;20206;-61
2022/01/12 10:27:45;;;;;;;12.38;7.70;;;3.10;99.90;;;;;;5092618;28;20172;-61
2022/01/12 10:30:22;;;;;;;12.82;7.10;;;3.20;99.90;;;;;;5092480;28;20195;-61
2022/01/12 10:33:08;;;;;;;14.85;8.00;;;3.30;99.90;;;;;;5092547;28;20175;-61
2022/01/12 10:35:40;;;;;;;12.18;6.97;;;3.40;99.90;;;;;;5092567;28;20523;-64
2022/01/12 10:38:06;;;;;;;11.10;7.47;;;3.50;99.90;;;;;;5091084;28;20222;-61
2022/01/12 10:40:45;;;;;;;12.10;7.63;;;3.50;99.90;;;;;;5092406;28;20172;-61
2022/01/12 10:43:30;;;;;;;10.30;6.97;;;3.60;99.90;;;;;;5092343;28;20187;-61
2022/01/12 10:45:56;;;;;;;12.57;7.70;;;3.60;99.90;;;;;;5092203;28;20662;-61
2022/01/12 10:48:25;;;;;;;13.50;6.80;;;3.60;99.90;;;;;;5092312;28;20179;-62
2022/01/12 10:50:58;;;;;;;10.93;6.78;;;3.50;99.90;;;;;;5093768;28;20184;-62
2022/01/12 10:53:29;;;;;;;12.20;7.60;;;3.40;99.90;;;;;;5096653;28;20180;-62
2022/01/12 10:56:22;;;;;;;10.65;6.88;;;3.40;99.90;;;;;;5096470;28;20168;-62
2022/01/12 10:58:50;;;;;;;11.88;6.55;;;3.60;99.90;;;;;;5094549;28;20223;-62
2022/01/12 11:01:19;;;;;;;11.23;6.45;;;3.70;99.90;;;;;;5096342;28;20318;-62
2022/01/12 11:03:45;;;;;;;9.88;6.40;;;3.70;99.90;;;;;;5096439;28;20256;-62
2022/01/12 11:06:11;;;;;;;10.15;6.95;;;3.80;99.90;;;;;;5096131;28;20507;-62
2022/01/12 11:08:39;;;;;;;11.30;7.20;;;3.80;99.90;;;;;;5096359;28;20180;-62
2022/01/12 11:11:06;;;;;;;10.55;6.88;;;3.90;99.90;;;;;;5096130;28;20176;-62
2022/01/12 11:13:33;;;;;;;12.02;6.50;;;3.90;99.90;;;;;;5096160;28;20210;-62
2022/01/12 11:16:03;;;;;;;11.52;6.88;;;4.00;99.90;;;;;;5096105;28;20182;-62
2022/01/12 11:18:32;;;;;;;13.27;6.97;;;4.00;99.90;;;;;;5096221;28;20176;-62
2022/01/12 11:21:32;;;;;;;11.65;6.85;;;4.10;99.90;;;;;;5094872;28;20187;-62
2022/01/12 11:23:58;;;;;;;12.88;8.30;;;4.10;99.90;;;;;;5093568;28;20210;-62
2022/01/12 11:26:28;;;;;;;12.02;7.25;;;4.10;99.90;;;;;;5095969;28;20184;-62
2022/01/12 11:28:55;;;;;;;11.02;7.18;;;4.10;99.90;;;;;;5095863;28;20229;-62
2022/01/12 11:31:40;;;;;;;20.40;10.77;;;4.20;99.90;;;;;;5095892;28;20592;-62
2022/01/12 11:34:15;;;;;;;17.10;8.85;;;4.20;99.90;;;;;;5095856;28;20673;-62
2022/01/12 11:36:41;;;;;;;13.82;8.73;;;4.20;99.90;;;;;;5095656;28;20666;-62
2022/01/12 11:39:15;;;;;;;14.45;8.73;;;4.10;99.90;;;;;;5095634;28;20241;-63
2022/01/12 11:41:43;;;;;;;9.57;6.20;;;4.20;99.90;;;;;;5095730;28;20167;-62
2022/01/12 11:44:12;;;;;;;10.15;6.65;;;4.20;99.90;;;;;;5095519;28;20176;-63
2022/01/12 11:46:57;;;;;;;8.35;5.97;;;4.30;99.90;;;;;;5095617;28;20180;-62
2022/01/12 11:49:37;;;;;;;7.57;5.05;;;4.40;99.90;;;;;;5095525;28;20203;-63
2022/01/12 11:52:26;;;;;;;8.27;5.22;;;4.50;99.80;;;;;;5095409;28;20715;-62
2022/01/12 11:55:08;;;;;;;8.73;5.43;;;4.40;99.70;;;;;;5095472;28;20183;-63
2022/01/12 11:57:41;;;;;;;6.65;4.78;;;4.40;99.70;;;;;;5095286;28;20272;-63
2022/01/12 12:00:17;;;;;;;8.50;5.10;;;4.40;99.50;;;;;;5095243;28;20180;-63
2022/01/12 12:02:46;;;;;;;8.32;5.43;;;4.30;99.30;;;;;;5094976;28;20538;-62
2022/01/12 12:05:21;;;;;;;9.70;5.88;;;4.20;99.80;;;;;;5095286;28;20255;-62
2022/01/12 12:07:52;;;;;;;9.32;5.90;;;4.20;99.90;;;;;;5095255;28;20258;-62
2022/01/12 12:10:23;;;;;;;8.88;5.40;;;4.20;99.90;;;;;;5095040;28;20180;-62
2022/01/12 12:12:51;;;;;;;9.30;5.78;;;4.10;99.40;;;;;;5095167;28;20176;-62
2022/01/12 12:15:16;;;;;;;10.40;6.00;;;4.00;99.60;;;;;;5094975;28;20204;-62
2022/01/12 12:17:43;;;;;;;8.63;5.82;;;4.00;99.90;;;;;;5095042;28;20247;-62
2022/01/12 12:20:12;;;;;;;9.18;5.68;;;4.00;99.90;;;;;;5094843;28;20263;-62
2022/01/12 12:22:40;;;;;;;7.97;5.38;;;4.00;99.70;;;;;;5094889;28;20687;-63
2022/01/12 12:25:21;;;;;;;8.10;5.45;;;4.00;99.80;;;;;;5094763;28;20700;-63
2022/01/12 12:27:55;;;;;;;8.07;5.53;;;4.00;99.80;;;;;;5094877;28;20180;-63
2022/01/12 12:30:22;;;;;;;7.93;5.22;;;4.00;99.60;;;;;;5093619;28;20171;-63
2022/01/12 12:32:52;;;;;;;8.55;5.80;;;3.90;99.80;;;;;;5094755;28;20184;-63
2022/01/12 12:35:25;;;;;;;9.13;5.30;;;3.90;99.90;;;;;;5093415;28;20184;-63
2022/01/12 12:38:03;;;;;;;11.82;6.40;;;3.90;99.90;;;;;;5094713;28;20601;-63
2022/01/12 12:40:40;;;;;;;9.85;5.82;;;3.90;99.90;;;;;;5094598;28;20204;-62
2022/01/12 12:43:12;;;;;;;10.60;5.97;;;3.80;99.90;;;;;;5093260;28;20245;-63
2022/01/12 12:46:11;;;;;;;13.07;7.03;;;3.70;99.90;;;;;;5094740;28;20524;-63
2022/01/12 12:48:39;;;;;;;11.40;6.53;;;3.70;99.90;;;;;;5087530;28;20711;-62
2022/01/12 12:51:11;;;;;;;9.70;6.35;;;3.60;99.90;;;;;;5094412;28;20532;-63
2022/01/12 12:53:40;;;;;;;10.13;6.18;;;3.60;99.90;;;;;;5094427;28;20182;-63
2022/01/12 12:56:14;;;;;;;9.95;5.88;;;3.60;99.90;;;;;;5093965;28;20666;-61
2022/01/12 12:58:40;;;;;;;8.90;6.10;;;3.60;99.90;;;;;;5094142;28;20239;-63
2022/01/12 13:01:13;;;;;;;16.65;7.65;;;3.50;99.90;;;;;;5094105;28;20198;-63
2022/01/12 13:03:46;;;;;;;11.13;6.90;;;3.50;99.90;;;;;;5094205;28;20176;-61
2022/01/12 13:06:27;;;;;;;12.10;6.82;;;3.60;99.90;;;;;;5093938;28;20670;-64
2022/01/12 13:08:57;;;;;;;10.95;6.53;;;3.70;99.90;;;;;;5094034;28;20183;-64
2022/01/12 13:11:33;;;;;;;9.85;7.05;;;3.70;99.90;;;;;;5094016;28;20264;-63
2022/01/12 13:14:02;;;;;;;14.68;7.65;;;3.70;99.90;;;;;;5093233;28;20638;-62
2022/01/12 13:16:28;;;;;;;14.65;8.13;;;3.80;99.90;;;;;;5093811;28;20208;-63
2022/01/12 13:19:04;;;;;;;12.63;7.28;;;3.80;99.90;;;;;;5093854;28;20225;-63
2022/01/12 13:21:31;;;;;;;11.45;7.43;;;3.80;99.90;;;;;;5093813;28;20172;-63
2022/01/12 13:23:58;;;;;;;12.38;7.47;;;3.70;99.90;;;;;;5093783;28;20187;-63
2022/01/12 13:26:30;;;;;;;11.32;7.22;;;3.60;99.90;;;;;;5092346;28;20533;-62
2022/01/12 13:28:56;;;;;;;13.43;7.82;;;3.60;99.90;;;;;;5092205;28;20639;-63
2022/01/12 13:31:23;;;;;;;15.00;8.25;;;3.50;99.90;;;;;;5093541;28;20183;-64
2022/01/12 13:33:51;;;;;;;12.32;7.88;;;3.50;99.90;;;;;;5093509;28;20184;-64
2022/01/12 13:36:29;;;;;;;10.93;7.13;;;3.40;99.90;;;;;;5092963;28;20191;-62
2022/01/12 13:39:10;;;;;;;11.30;7.43;;;3.40;99.90;;;;;;5092513;28;20309;-62
2022/01/12 13:41:45;;;;;;;12.45;7.32;;;3.40;99.90;;;;;;5073000;28;20639;-63
2022/01/12 13:44:20;;;;;;;10.88;8.00;;;3.40;99.90;;;;;;5081560;28;20507;-63
2022/01/12 13:47:09;;;;;;;10.15;6.90;;;3.40;99.90;;;;;;5091366;28;20172;-62
2022/01/12 13:49:35;;;;;;;13.80;7.28;;;3.40;99.90;;;;;;5093283;28;20187;-62
2022/01/12 13:52:07;;;;;;;11.70;7.38;;;3.40;99.90;;;;;;5093161;28;20172;-63
2022/01/12 13:54:34;;;;;;;11.20;7.10;;;3.40;99.90;;;;;;5093209;28;20266;-63
2022/01/12 13:57:00;;;;;;;12.75;7.28;;;3.40;99.90;;;;;;5093272;28;20645;-62
2022/01/12 13:59:29;;;;;;;15.55;8.38;;;3.30;99.90;;;;;;5104786;28;20220;-62
2022/01/12 14:01:57;;;;;;;12.85;7.97;;;3.30;99.90;;;;;;5092824;28;20192;-62
2022/01/12 14:04:36;;;;;;;13.32;7.50;;;3.40;99.90;;;;;;5092861;28;20180;-63
2022/01/12 14:07:05;;;;;;;14.52;7.65;;;3.30;99.90;;;;;;5092905;28;20259;-66
2022/01/12 14:09:37;;;;;;;11.23;7.45;;;3.40;99.90;;;;;;5092487;28;20583;-63
2022/01/12 14:12:16;;;;;;;14.85;7.20;;;3.40;99.90;;;;;;5092418;28;20176;-63
2022/01/12 14:14:49;;;;;;;10.95;7.43;;;3.40;99.90;;;;;;5092793;28;20256;-64
2022/01/12 14:17:44;;;;;;;13.13;8.73;;;3.40;99.90;;;;;;5090903;28;20730;-64